createdAt,value
2017-05-23T00:04:33.736Z,65.3
2017-05-23T00:14:43.350Z,67
2017-05-23T00:24:53.013Z,67.5
2017-05-23T00:35:02.729Z,67.8
2017-05-23T00:45:12.440Z,66.8
2017-05-23T00:55:22.190Z,67
2017-05-23T01:05:31.963Z,67.1
2017-05-23T01:15:41.676Z,66.9
2017-05-23T01:25:51.427Z,67.6
2017-05-23T01:36:01.234Z,68.6
2017-05-23T01:46:11.073Z,69.6
2017-05-23T01:56:20.933Z,72.5
2017-05-23T02:06:30.790Z,73.8
2017-05-23T02:16:40.619Z,74.8
2017-05-23T02:26:50.441Z,76.5
2017-05-23T02:37:00.297Z,76.4
2017-05-23T02:47:10.084Z,77.5
2017-05-23T02:57:19.906Z,79.4
2017-05-23T03:07:29.735Z,80.9
2017-05-23T03:17:39.633Z,81.4
2017-05-23T03:27:49.568Z,81.9
2017-05-23T03:37:59.507Z,82
2017-05-23T03:48:09.401Z,82.9
2017-05-23T03:58:19.311Z,84.6
2017-05-23T04:08:29.246Z,86.1
2017-05-23T04:18:39.110Z,86.2
2017-05-23T04:28:48.956Z,83.8
2017-05-23T04:38:58.582Z,81.1
2017-05-23T04:49:08.116Z,78.8
2017-05-23T04:59:17.460Z,76.7
2017-05-23T05:09:26.731Z,77.5
2017-05-23T05:19:36.086Z,77.4
2017-05-23T05:29:45.375Z,76.2
2017-05-23T05:39:54.394Z,74.8
2017-05-23T05:50:03.256Z,77
2017-05-23T06:00:12.075Z,75.3
2017-05-23T06:10:20.732Z,76
2017-05-23T06:20:29.253Z,72.8
2017-05-23T06:30:37.642Z,73.9
2017-05-23T06:40:45.902Z,73
2017-05-23T06:50:54.166Z,73
2017-05-23T07:01:02.338Z,72
2017-05-23T07:11:10.365Z,67.1
2017-05-23T07:21:18.390Z,66.7
2017-05-23T07:31:26.459Z,67.9
2017-05-23T07:41:34.429Z,62.8
2017-05-23T07:51:42.234Z,62.4
2017-05-23T08:01:49.927Z,61.7
2017-05-23T08:11:57.677Z,59.2
2017-05-23T08:22:05.441Z,54.3
2017-05-23T08:32:12.889Z,57.5
2017-05-23T08:42:20.378Z,53.5
2017-05-23T08:52:27.941Z,48.9
2017-05-23T09:02:35.271Z,51.9
2017-05-23T09:12:42.690Z,53.5
2017-05-23T09:22:50.160Z,52
2017-05-23T09:32:57.601Z,51.8
2017-05-23T09:43:05.087Z,51.8
2017-05-23T09:53:12.598Z,52.3
2017-05-23T10:03:20.063Z,51.5
2017-05-23T10:13:27.435Z,52.6
2017-05-23T10:23:34.868Z,49.8
2017-05-23T10:33:42.177Z,51.6
2017-05-23T10:43:49.502Z,51.8
2017-05-23T11:04:04.134Z,48.9
2017-05-23T11:14:11.490Z,48.8
2017-05-23T11:24:18.839Z,48
2017-05-23T11:34:26.174Z,46.4
2017-05-23T11:44:33.479Z,46
2017-05-23T11:54:40.809Z,42
2017-05-23T12:04:48.046Z,40.6
2017-05-23T12:14:55.268Z,43.1
2017-05-23T12:25:02.686Z,42.3
2017-05-23T12:35:10.265Z,44.9
2017-05-23T12:45:17.867Z,41.8
2017-05-23T12:55:25.418Z,42.9
2017-05-23T13:05:32.894Z,43.5
2017-05-23T13:15:40.691Z,43.1
2017-05-23T13:25:48.233Z,42.7
2017-05-23T13:35:55.781Z,44.9
2017-05-23T13:46:03.310Z,46
2017-05-23T13:56:10.908Z,47.6
2017-05-23T14:06:18.585Z,50.2
2017-05-23T14:16:26.334Z,57.8
2017-05-23T14:26:34.200Z,59.4
2017-05-23T14:36:41.995Z,61.6
2017-05-23T14:46:49.736Z,63.1
2017-05-23T14:56:57.647Z,63.5
2017-05-23T15:07:05.652Z,62.7
2017-05-23T15:17:13.761Z,62
2017-05-23T15:27:21.814Z,61
2017-05-23T15:37:29.801Z,57.6
2017-05-23T15:47:37.786Z,59
2017-05-23T15:57:45.900Z,61
2017-05-23T16:07:54.105Z,60.3
2017-05-23T16:18:02.411Z,59.1
2017-05-23T16:28:10.663Z,57.7
2017-05-23T16:38:18.898Z,56.2
2017-05-23T16:48:27.178Z,54.7
2017-05-23T16:58:35.499Z,54.6
2017-05-23T17:08:43.941Z,55.9
2017-05-23T17:18:52.377Z,59.3
2017-05-23T17:29:00.915Z,52.9
2017-05-23T17:39:09.662Z,50.4
2017-05-23T17:49:18.483Z,50.6
2017-05-23T17:59:27.424Z,52.1
2017-05-23T18:09:36.434Z,50.5
2017-05-23T18:19:45.363Z,51.4
2017-05-23T18:29:54.347Z,52.1
2017-05-23T18:40:03.468Z,53.7
2017-05-23T18:50:12.670Z,54.4
2017-05-23T19:00:21.916Z,54.5
2017-05-23T19:10:31.188Z,55.5
2017-05-23T19:20:40.566Z,54.7
2017-05-23T19:30:50.032Z,54.4
2017-05-23T19:40:59.619Z,54.6
2017-05-23T19:51:09.247Z,56
2017-05-23T20:01:18.920Z,56.3
2017-05-23T20:11:28.670Z,55.8
2017-05-23T20:21:38.480Z,57.3
2017-05-23T20:31:48.247Z,57.7
2017-05-23T20:41:58.017Z,58.8
2017-05-23T20:52:07.815Z,60.2
2017-05-23T21:02:17.623Z,60.8
2017-05-23T21:12:27.486Z,61.8
2017-05-23T21:22:37.435Z,63.1
2017-05-23T21:32:47.380Z,63.4
2017-05-23T21:42:57.329Z,65.8
2017-05-23T21:53:07.297Z,66.6
2017-05-23T22:03:17.308Z,67.7
2017-05-23T22:13:27.341Z,69.3
2017-05-23T22:23:37.404Z,70.9
2017-05-23T22:33:47.480Z,70.9
2017-05-23T22:43:57.560Z,72.2
2017-05-23T22:54:07.689Z,73.2
2017-05-23T23:04:17.840Z,74.3
2017-05-23T23:14:27.998Z,76.1
2017-05-23T23:24:38.176Z,78.3
2017-05-23T23:34:48.375Z,79.3
2017-05-23T23:44:58.553Z,80.1
2017-05-23T23:55:08.751Z,81.2
